Time;durP1;ratioP1;P1;durP2;ratioP2;P2;SDS_P1;SDS_P2;PMS_P1;PMS_P2;Temp;Humidity;BMP_temperature;BMP_pressure;BME280_temperature;BME280_humidity;BME280_pressure;Samples;Min_cycle;Max_cycle;Signal;HPM_P1;HPM_P2
2021/09/12 00:02:33;;;;;;;7.43;5.00;;;;;;;;;;6251107;28;20025;-86
2021/09/12 00:05:34;;;;;;;5.78;5.20;;;;;;;;;;6251213;28;20368;-86
2021/09/12 00:08:35;;;;;;;5.78;5.18;;;13.70;99.90;;;;;;6234186;28;20029;-87
2021/09/12 00:11:36;;;;;;;7.10;5.22;;;13.60;99.90;;;;;;6217837;28;20390;-86
2021/09/12 00:14:37;;;;;;;5.90;5.30;;;;;;;;;;6217353;28;20033;-85
2021/09/12 00:17:37;;;;;;;5.45;4.95;;;13.40;99.90;;;;;;6250492;28;20032;-86
2021/09/12 00:20:38;;;;;;;6.78;5.38;;;;;;;;;;6217731;28;20071;-87
2021/09/12 00:23:39;;;;;;;6.25;5.38;;;;;;;;;;6234103;28;20111;-86
2021/09/12 00:26:40;;;;;;;5.68;5.18;;;;;;;;;;6250711;28;20336;-86
2021/09/12 00:29:41;;;;;;;6.82;5.55;;;;;;;;;;6233521;28;20162;-86
2021/09/12 00:32:42;;;;;;;6.93;5.57;;;13.40;99.90;;;;;;6233659;28;20021;-86
2021/09/12 00:35:42;;;;;;;5.20;4.60;;;13.50;99.90;;;;;;6216667;28;20048;-86
2021/09/12 00:38:43;;;;;;;8.15;5.18;;;13.40;99.90;;;;;;6233665;28;20037;-85
2021/09/12 00:41:44;;;;;;;10.20;5.85;;;13.60;99.90;;;;;;6217429;28;20082;-86
2021/09/12 00:44:45;;;;;;;5.95;5.10;;;13.60;99.90;;;;;;6217192;28;20454;-88
2021/09/12 00:47:46;;;;;;;6.78;5.70;;;;;;;;;;6217512;28;20029;-86
2021/09/12 00:50:47;;;;;;;10.63;6.00;;;13.50;99.90;;;;;;6233460;28;20021;-85
2021/09/12 00:53:49;;;;;;;6.10;5.18;;;13.70;99.90;;;;;;6217416;28;20036;-88
2021/09/12 00:56:49;;;;;;;7.53;5.18;;;13.40;99.90;;;;;;6233522;28;20041;-85
2021/09/12 00:59:50;;;;;;;5.85;5.13;;;;;;;;;;6217119;28;20125;-85
2021/09/12 01:02:51;;;;;;;6.22;5.63;;;;;;;;;;6233260;28;20032;-87
2021/09/12 01:05:52;;;;;;;6.85;5.82;;;13.20;99.90;;;;;;6233078;28;20104;-85
2021/09/12 01:08:52;;;;;;;9.25;5.65;;;13.00;99.90;;;;;;6217181;28;20039;-87
2021/09/12 01:11:59;;;;;;;6.47;5.50;;;13.10;99.90;;;;;;6217192;28;20037;-86
2021/09/12 01:15:00;;;;;;;8.50;6.32;;;13.20;99.90;;;;;;6217287;28;20033;-85
2021/09/12 01:18:01;;;;;;;6.65;5.85;;;13.20;99.90;;;;;;6216782;28;20150;-85
2021/09/12 01:21:02;;;;;;;6.05;5.43;;;;;;;;;;6216978;28;20107;-85
2021/09/12 01:24:09;;;;;;;6.88;5.47;;;13.20;99.90;;;;;;6233047;28;20494;-85
2021/09/12 01:27:09;;;;;;;6.93;5.53;;;13.50;99.90;;;;;;6217094;28;20078;-88
2021/09/12 01:30:10;;;;;;;6.90;6.20;;;;;;;;;;6233186;28;20025;-89
2021/09/12 01:33:11;;;;;;;7.05;6.15;;;13.20;99.90;;;;;;6234024;28;20021;-88
2021/09/12 01:36:12;;;;;;;7.57;5.93;;;;;;;;;;6216868;28;20048;-87
2021/09/12 01:39:13;;;;;;;6.10;5.50;;;;;;;;;;6233229;28;20439;-87
2021/09/12 01:42:14;;;;;;;5.70;5.18;;;13.40;99.90;;;;;;6233812;28;20040;-87
2021/09/12 01:45:15;;;;;;;7.88;5.03;;;;;;;;;;6221190;28;20025;-87
2021/09/12 01:48:15;;;;;;;6.60;5.47;;;;;;;;;;6237468;28;20029;-87
2021/09/12 01:51:18;;;;;;;6.38;5.78;;;;;;;;;;6237327;28;20033;-87
2021/09/12 01:54:19;;;;;;;7.05;5.60;;;;;;;;;;6237547;28;20065;-89
2021/09/12 01:57:19;;;;;;;6.45;5.45;;;13.20;99.90;;;;;;6237256;28;20356;-85
2021/09/12 02:00:20;;;;;;;6.55;5.53;;;;;;;;;;6220801;28;20025;-86
2021/09/12 02:03:21;;;;;;;8.13;6.22;;;;;;;;;;6237027;28;20013;-87
2021/09/12 02:06:22;;;;;;;6.63;5.68;;;;;;;;;;6237124;28;20414;-88
2021/09/12 02:09:26;;;;;;;7.57;6.20;;;13.00;99.90;;;;;;6236806;28;20025;-86
2021/09/12 02:12:27;;;;;;;10.38;6.03;;;13.30;99.90;;;;;;6237525;28;20021;-86
2021/09/12 02:15:28;;;;;;;7.07;6.38;;;;;;;;;;6236889;28;20379;-86
2021/09/12 02:18:29;;;;;;;7.18;5.93;;;;;;;;;;6236491;28;20112;-86
2021/09/12 02:21:30;;;;;;;7.25;6.10;;;;;;;;;;6236782;28;20033;-86
2021/09/12 02:24:30;;;;;;;6.13;5.53;;;;;;;;;;6235670;28;20036;-86
2021/09/12 02:27:31;;;;;;;7.32;6.63;;;;;;;;;;6252763;28;20071;-86
2021/09/12 02:30:33;;;;;;;7.18;5.95;;;;;;;;;;6236260;28;20029;-87
2021/09/12 02:33:33;;;;;;;7.53;5.82;;;12.80;99.90;;;;;;6236707;28;20378;-86
2021/09/12 02:36:34;;;;;;;6.93;5.47;;;;;;;;;;6219447;28;20683;-86
2021/09/12 02:39:35;;;;;;;6.13;5.53;;;;;;;;;;6252614;28;20127;-86
2021/09/12 02:42:38;;;;;;;7.05;5.28;;;;;;;;;;6235911;28;20029;-86
2021/09/12 02:45:39;;;;;;;7.45;5.88;;;12.90;99.90;;;;;;6236551;28;20083;-87
2021/09/12 02:48:40;;;;;;;7.53;5.80;;;;;;;;;;6219699;28;20025;-86
2021/09/12 02:51:41;;;;;;;7.38;6.57;;;;;;;;;;6252669;28;20017;-88
2021/09/12 02:54:41;;;;;;;6.88;6.18;;;13.00;99.90;;;;;;6235574;28;20071;-86
2021/09/12 02:57:42;;;;;;;9.02;7.03;;;;;;;;;;6219359;28;20470;-86
2021/09/12 03:00:43;;;;;;;7.93;6.32;;;;;;;;;;6252297;28;20143;-87
2021/09/12 03:03:44;;;;;;;7.00;6.03;;;12.60;99.90;;;;;;6235132;28;20162;-85
2021/09/12 03:06:45;;;;;;;7.57;6.32;;;;;;;;;;6219226;28;20020;-86
2021/09/12 03:09:45;;;;;;;7.53;5.82;;;12.60;99.90;;;;;;6252225;28;20025;-86
2021/09/12 03:12:46;;;;;;;12.73;6.97;;;;;;;;;;6218848;28;20036;-85
2021/09/12 03:15:47;;;;;;;6.70;6.00;;;12.90;99.90;;;;;;6251936;28;20029;-86
2021/09/12 03:18:48;;;;;;;7.88;6.10;;;;;;;;;;6218588;28;20629;-86
2021/09/12 03:21:48;;;;;;;9.15;6.22;;;12.90;99.90;;;;;;6235299;28;20025;-86
2021/09/12 03:24:49;;;;;;;6.72;6.05;;;;;;;;;;6218578;28;20029;-88
2021/09/12 03:27:52;;;;;;;10.80;6.28;;;;;;;;;;6241898;28;20020;-86
2021/09/12 03:30:53;;;;;;;7.70;5.80;;;12.70;99.90;;;;;;6256533;28;20025;-87
2021/09/12 03:33:54;;;;;;;6.07;5.43;;;;;;;;;;6218360;28;20067;-86
2021/09/12 03:36:55;;;;;;;6.82;5.72;;;;;;;;;;6234570;28;20040;-85
2021/09/12 03:39:56;;;;;;;12.70;5.70;;;;;;;;;;6234615;28;20074;-87
2021/09/12 03:42:56;;;;;;;8.57;6.35;;;12.30;99.90;;;;;;6234507;28;20033;-88
2021/09/12 03:45:57;;;;;;;10.90;5.95;;;;;;;;;;6218396;28;20056;-87
2021/09/12 03:48:58;;;;;;;7.05;6.30;;;;;;;;;;6251126;28;20029;-87
2021/09/12 03:51:59;;;;;;;8.57;6.72;;;;;;;;;;6234697;28;20113;-87
2021/09/12 03:55:00;;;;;;;8.27;6.00;;;;;;;;;;6235248;28;20067;-88
2021/09/12 03:58:01;;;;;;;9.63;6.55;;;;;;;;;;6234740;28;20033;-87
2021/09/12 04:01:02;;;;;;;7.07;6.38;;;;;;;;;;6235105;28;20017;-88
2021/09/12 04:04:03;;;;;;;6.82;6.10;;;;;;;;;;6235089;28;20033;-87
2021/09/12 04:07:04;;;;;;;6.85;6.15;;;;;;;;;;6233579;28;20025;-87
2021/09/12 04:10:06;;;;;;;7.10;5.93;;;;;;;;;;6235223;28;20460;-88
2021/09/12 04:13:07;;;;;;;7.55;5.60;;;;;;;;;;6235085;28;20056;-87
2021/09/12 04:16:07;;;;;;;7.20;5.63;;;12.70;99.90;;;;;;6234581;28;20537;-89
2021/09/12 04:19:08;;;;;;;6.82;6.10;;;;;;;;;;6217833;28;20064;-87
2021/09/12 04:22:09;;;;;;;7.75;6.13;;;;;;;;;;6234429;28;20024;-87
2021/09/12 04:25:10;;;;;;;6.60;6.00;;;12.70;99.90;;;;;;6234338;28;20033;-87
2021/09/12 04:28:11;;;;;;;7.32;6.30;;;;;;;;;;6218668;28;20033;-89
2021/09/12 04:31:12;;;;;;;7.70;6.30;;;12.30;99.90;;;;;;6234483;28;20045;-88
2021/09/12 04:34:13;;;;;;;7.72;6.93;;;;;;;;;;6217692;28;20095;-87
2021/09/12 04:37:14;;;;;;;6.72;6.03;;;12.50;99.90;;;;;;6234085;28;20064;-87
2021/09/12 04:40:15;;;;;;;8.88;6.40;;;12.50;99.90;;;;;;6217675;28;20540;-89
2021/09/12 04:43:16;;;;;;;9.40;5.90;;;;;;;;;;6217960;28;20036;-90
2021/09/12 04:46:16;;;;;;;7.90;6.38;;;12.30;99.90;;;;;;6234387;28;20028;-88
2021/09/12 04:49:17;;;;;;;7.68;6.15;;;;;;;;;;6217872;28;20455;-87
2021/09/12 04:52:18;;;;;;;7.82;6.20;;;;;;;;;;6234114;28;20116;-88
2021/09/12 04:55:19;;;;;;;6.90;6.20;;;12.50;99.90;;;;;;6234073;28;20040;-88
2021/09/12 04:58:20;;;;;;;7.07;5.82;;;12.40;99.90;;;;;;6217329;28;20374;-86
2021/09/12 05:01:20;;;;;;;6.88;6.13;;;12.40;99.90;;;;;;6217285;28;20060;-86
2021/09/12 05:04:21;;;;;;;7.13;5.97;;;;;;;;;;6216747;28;20029;-87
2021/09/12 05:07:22;;;;;;;7.38;5.75;;;12.20;99.90;;;;;;6250304;28;20116;-89
2021/09/12 05:10:23;;;;;;;8.20;6.10;;;15.90;99.90;;;;;;6217710;28;20488;-88
2021/09/12 05:13:23;;;;;;;6.88;5.95;;;12.30;99.90;;;;;;6217419;28;20074;-88
2021/09/12 05:16:24;;;;;;;6.18;5.57;;;;;;;;;;6218376;28;20041;-88
2021/09/12 05:19:25;;;;;;;7.25;5.82;;;12.30;99.90;;;;;;6238938;28;20020;-88
2021/09/12 05:22:26;;;;;;;8.32;5.50;;;;;;;;;;6222373;28;20036;-88
2021/09/12 05:25:27;;;;;;;6.35;5.50;;;12.50;99.90;;;;;;6238193;28;20021;-88
2021/09/12 05:28:28;;;;;;;6.90;5.63;;;;;;;;;;6220822;28;20036;-88
2021/09/12 05:31:28;;;;;;;7.00;6.30;;;12.10;99.90;;;;;;6238060;28;20029;-86
2021/09/12 05:34:29;;;;;;;10.35;7.50;;;;;;;;;;6237278;28;20029;-88
2021/09/12 05:37:30;;;;;;;8.77;7.00;;;;;;;;;;6238187;28;20047;-89
2021/09/12 05:40:31;;;;;;;14.15;8.85;;;12.50;99.90;;;;;;6237896;28;20025;-89
2021/09/12 05:43:31;;;;;;;12.43;7.25;;;13.90;99.90;;;;;;6221790;28;20044;-88
2021/09/12 05:46:35;;;;;;;6.72;5.80;;;;;;;;;;6221618;28;20047;-88
2021/09/12 05:49:36;;;;;;;7.78;5.25;;;;;;;;;;6238321;28;20439;-88
2021/09/12 05:52:37;;;;;;;5.60;5.10;;;;;;;;;;6237585;28;20144;-88
2021/09/12 05:55:38;;;;;;;6.07;4.47;;;15.00;99.90;;;;;;6254457;28;20033;-88
2021/09/12 05:58:39;;;;;;;5.97;4.80;;;;;;;;;;6221052;28;20029;-88
2021/09/12 06:01:39;;;;;;;5.03;4.53;;;15.40;99.90;;;;;;6253940;28;20017;-88
2021/09/12 06:04:40;;;;;;;4.90;4.20;;;;;;;;;;6221219;28;20153;-88
2021/09/12 06:07:41;;;;;;;5.72;4.40;;;;;;;;;;6236990;28;20162;-89
2021/09/12 06:10:45;;;;;;;6.63;4.28;;;;;;;;;;6237583;28;20074;-88
2021/09/12 06:13:46;;;;;;;6.68;4.57;;;;;;;;;;6237214;28;20060;-89
2021/09/12 06:16:47;;;;;;;5.05;4.45;;;17.50;99.90;;;;;;6237160;28;20043;-88
2021/09/12 06:19:50;;;;;;;5.72;4.43;;;18.30;99.90;;;;;;6220798;28;20025;-90
2021/09/12 06:22:53;;;;;;;5.15;4.20;;;18.60;99.90;;;;;;6237124;28;20091;-88
2021/09/12 06:25:54;;;;;;;5.63;4.07;;;18.70;99.90;;;;;;6220597;28;20486;-88
2021/09/12 06:28:54;;;;;;;4.28;3.88;;;18.80;99.90;;;;;;6219537;28;20029;-85
2021/09/12 06:31:55;;;;;;;5.72;3.95;;;19.00;99.90;;;;;;6219694;28;20056;-86
2021/09/12 06:34:56;;;;;;;4.35;3.95;;;;;;;;;;6219714;28;20049;-87
2021/09/12 06:37:57;;;;;;;4.93;4.03;;;;;;;;;;6236506;28;20036;-86
2021/09/12 06:40:58;;;;;;;8.05;4.10;;;;;;;;;;6236467;28;20033;-87
2021/09/12 06:43:59;;;;;;;6.20;4.57;;;20.20;99.90;;;;;;6236386;28;20552;-87
2021/09/12 06:47:00;;;;;;;5.28;3.67;;;20.70;99.90;;;;;;6219925;28;20051;-87
2021/09/12 06:50:01;;;;;;;4.70;3.53;;;21.00;99.90;;;;;;6220306;28;20025;-88
2021/09/12 06:53:02;;;;;;;4.00;3.60;;;20.90;99.90;;;;;;6219929;28;20386;-86
2021/09/12 06:56:03;;;;;;;4.03;3.45;;;21.30;99.90;;;;;;6219671;28;20047;-90
2021/09/12 06:59:03;;;;;;;4.25;3.60;;;21.40;99.90;;;;;;6222083;28;20116;-88
2021/09/12 07:02:04;;;;;;;3.90;3.50;;;21.60;99.90;;;;;;6219791;28;20465;-87
2021/09/12 07:05:06;;;;;;;4.40;3.42;;;21.60;99.90;;;;;;6233696;28;20036;-89
2021/09/12 07:08:07;;;;;;;6.35;4.00;;;;;;;;;;6215607;28;20120;-87
2021/09/12 07:11:13;;;;;;;3.85;3.25;;;22.50;99.90;;;;;;6247881;28;20036;-89
2021/09/12 07:14:14;;;;;;;4.07;3.60;;;22.50;99.80;;;;;;6231495;28;20463;-86
2021/09/12 07:17:15;;;;;;;4.05;3.28;;;;;;;;;;6215290;28;20032;-91
2021/09/12 07:20:18;;;;;;;4.00;3.25;;;23.20;97.10;;;;;;6231768;28;20029;-85
2021/09/12 07:23:19;;;;;;;4.05;3.55;;;23.50;96.90;;;;;;6215433;28;20067;-86
2021/09/12 07:26:20;;;;;;;8.85;3.40;;;;;;;;;;6215224;28;20063;-89
2021/09/12 07:29:21;;;;;;;3.38;3.08;;;;;;;;;;6231305;28;20037;-89
2021/09/12 07:32:24;;;;;;;4.97;3.63;;;24.00;95.50;;;;;;6266625;28;20371;-91
2021/09/12 07:35:37;;;;;;;6.90;3.40;;;24.60;99.90;;;;;;6213243;28;20091;-90
2021/09/12 07:39:06;;;;;;;6.05;2.90;;;25.00;92.70;;;;;;6211483;28;20045;-93
2021/09/12 07:42:16;;;;;;;3.40;3.03;;;25.40;91.20;;;;;;6230885;28;20470;-89
2021/09/12 07:45:17;;;;;;;3.40;3.08;;;25.80;99.40;;;;;;6212728;28;20113;-83
2021/09/12 07:48:27;;;;;;;6.03;3.73;;;25.70;90.00;;;;;;6213557;28;20443;-89
2021/09/12 07:51:28;;;;;;;4.05;3.28;;;;;;;;;;6235405;28;20593;-89
2021/09/12 07:54:28;;;;;;;3.30;3.00;;;25.90;89.20;;;;;;6251233;28;20112;-86
2021/09/12 07:57:29;;;;;;;5.73;3.47;;;25.90;90.40;;;;;;6215432;28;20060;-84
2021/09/12 08:00:30;;;;;;;4.10;3.33;;;26.30;96.60;;;;;;6232234;28;20102;-81
2021/09/12 08:03:33;;;;;;;3.97;3.20;;;26.90;95.60;;;;;;6216490;28;20037;-87
2021/09/12 08:06:34;;;;;;;3.25;2.95;;;27.20;83.90;;;;;;6216564;28;20467;-86
2021/09/12 08:09:35;;;;;;;3.47;3.17;;;;;;;;;;6236387;28;20025;-85
2021/09/12 08:12:35;;;;;;;4.87;3.03;;;27.60;80.90;;;;;;6233038;28;20025;-89
2021/09/12 08:15:36;;;;;;;6.10;3.17;;;27.80;84.10;;;;;;6217051;28;20033;-83
2021/09/12 08:18:36;;;;;;;3.47;3.03;;;28.30;80.70;;;;;;6214087;28;20509;-87
2021/09/12 08:21:37;;;;;;;3.93;3.20;;;28.90;79.00;;;;;;6214360;28;20024;-86
2021/09/12 08:24:38;;;;;;;3.77;3.20;;;28.90;76.90;;;;;;6214771;28;20506;-87
2021/09/12 08:27:38;;;;;;;3.67;3.23;;;29.70;90.30;;;;;;6232313;28;20024;-85
2021/09/12 08:30:40;;;;;;;4.33;3.33;;;29.60;76.00;;;;;;6231479;28;20029;-88
2021/09/12 08:33:41;;;;;;;3.55;3.25;;;30.00;76.80;;;;;;6231372;28;20036;-86
2021/09/12 08:36:41;;;;;;;2.93;2.63;;;30.00;74.20;;;;;;6214202;28;20048;-89
2021/09/12 08:39:43;;;;;;;3.13;2.80;;;;;;;;;;6231819;28;20083;-86
2021/09/12 08:42:44;;;;;;;5.65;3.22;;;29.90;86.40;;;;;;6250017;28;20025;-88
2021/09/12 08:45:45;;;;;;;3.75;3.40;;;30.10;94.40;;;;;;6217768;28;20025;-87
2021/09/12 08:48:46;;;;;;;7.80;3.40;;;30.30;94.50;;;;;;6217156;28;20029;-87
2021/09/12 08:51:47;;;;;;;3.93;3.53;;;;;;;;;;6234422;28;20451;-86
2021/09/12 08:54:47;;;;;;;5.57;3.40;;;30.80;94.30;;;;;;6238916;28;20048;-86
2021/09/12 08:57:52;;;;;;;6.67;3.90;;;30.40;93.50;;;;;;6238109;28;20037;-87
2021/09/12 09:00:59;;;;;;;4.85;3.53;;;30.80;78.90;;;;;;6218471;28;20049;-91
2021/09/12 09:04:01;;;;;;;4.10;3.65;;;30.80;79.90;;;;;;6213753;28;20623;-86
2021/09/12 09:07:04;;;;;;;4.75;4.07;;;30.70;81.10;;;;;;6234427;28;20033;-88
2021/09/12 09:10:19;;;;;;;4.22;3.60;;;30.40;92.30;;;;;;6221513;28;20455;-82
2021/09/12 09:13:36;;;;;;;5.95;3.67;;;30.90;78.60;;;;;;6221324;28;20051;-84
2021/09/12 09:16:37;;;;;;;4.50;3.75;;;;;;;;;;6237706;28;20370;-85
2021/09/12 09:19:53;;;;;;;4.07;3.40;;;31.10;79.70;;;;;;6235654;28;20048;-87
2021/09/12 09:22:57;;;;;;;4.60;3.45;;;;;;;;;;6221189;28;20033;-84
2021/09/12 09:25:58;;;;;;;4.97;3.22;;;;;;;;;;6254294;28;20016;-88
2021/09/12 09:28:59;;;;;;;4.70;3.63;;;;;;;;;;6237893;28;20049;-86
2021/09/12 09:32:08;;;;;;;4.15;3.30;;;30.90;67.50;;;;;;6237008;28;20033;-85
2021/09/12 09:35:09;;;;;;;4.07;3.58;;;30.80;70.40;;;;;;6220761;28;20056;-86
2021/09/12 09:38:10;;;;;;;5.07;3.30;;;30.50;70.10;;;;;;6220365;28;20069;-86
2021/09/12 09:41:14;;;;;;;3.57;3.27;;;30.50;87.00;;;;;;6221537;28;20124;-88
2021/09/12 09:44:22;;;;;;;4.28;3.60;;;30.50;71.30;;;;;;6237321;28;20039;-87
2021/09/12 09:47:26;;;;;;;6.30;3.65;;;30.40;68.10;;;;;;6223205;28;20056;-87
2021/09/12 09:50:29;;;;;;;4.63;3.15;;;;;;;;;;6224009;28;20021;-87
2021/09/12 09:53:48;;;;;;;4.13;3.28;;;30.60;68.30;;;;;;6238276;28;20052;-91
2021/09/12 09:56:49;;;;;;;4.60;3.50;;;31.70;71.00;;;;;;6219115;28;20052;-90
2021/09/12 09:59:50;;;;;;;4.22;3.38;;;;;;;;;;6254888;28;20025;-87
2021/09/12 10:02:51;;;;;;;5.55;3.30;;;30.70;68.30;;;;;;6236090;28;20037;-87
2021/09/12 10:05:52;;;;;;;4.30;3.20;;;30.80;68.70;;;;;;6220444;28;20025;-88
2021/09/12 10:08:52;;;;;;;3.73;3.30;;;30.70;69.00;;;;;;6220290;28;20112;-85
2021/09/12 10:12:02;;;;;;;4.27;3.30;;;30.50;84.30;;;;;;6220413;28;20447;-88
2021/09/12 10:15:08;;;;;;;6.45;3.33;;;30.40;69.30;;;;;;6235578;28;20025;-83
2021/09/12 10:18:09;;;;;;;8.20;3.42;;;30.30;68.20;;;;;;6221694;28;20033;-89
2021/09/12 10:21:23;;;;;;;5.53;3.10;;;30.10;70.80;;;;;;6221635;28;20021;-89
2021/09/12 10:24:24;;;;;;;6.82;3.30;;;;;;;;;;6221116;28;20048;-89
2021/09/12 10:28:06;;;;;;;4.20;2.95;;;30.30;67.80;;;;;;6237254;28;20490;-90
2021/09/12 10:31:50;;;;;;;4.60;3.35;;;30.50;82.40;;;;;;6140262;28;20042;-91
2021/09/12 10:35:11;;;;;;;4.72;3.22;;;31.40;68.20;;;;;;6143341;28;20086;-90
2021/09/12 10:38:12;;;;;;;3.20;2.90;;;30.50;68.20;;;;;;6154129;28;20134;-86
2021/09/12 10:41:14;;;;;;;3.80;3.10;;;30.50;68.20;;;;;;6138219;28;20066;-84
2021/09/12 10:44:26;;;;;;;5.97;2.97;;;30.20;80.10;;;;;;6153831;28;20461;-92
2021/09/12 10:47:28;;;;;;;4.90;2.88;;;30.40;72.30;;;;;;6137974;28;20031;-87
2021/09/12 10:50:42;;;;;;;3.30;3.00;;;30.20;83.30;;;;;;6137120;28;20597;-87
2021/09/12 10:53:45;;;;;;;3.65;2.95;;;30.20;68.40;;;;;;6137667;28;20376;-87
2021/09/12 10:56:46;;;;;;;3.85;3.20;;;;;;;;;;6169145;28;20066;-87
2021/09/12 10:59:47;;;;;;;4.82;3.03;;;29.90;67.60;;;;;;6137479;28;20035;-87
2021/09/12 11:02:48;;;;;;;5.40;3.10;;;29.70;68.70;;;;;;6228001;28;20032;-86
2021/09/12 11:05:48;;;;;;;6.10;3.58;;;29.50;69.20;;;;;;6219104;28;20033;-87
2021/09/12 11:08:49;;;;;;;5.10;2.93;;;29.50;69.60;;;;;;6219151;28;20612;-87
2021/09/12 11:12:03;;;;;;;4.67;3.50;;;29.50;69.30;;;;;;6215948;28;20021;-84
2021/09/12 11:15:04;;;;;;;3.50;3.20;;;29.40;68.60;;;;;;6215140;28;20028;-86
2021/09/12 11:18:05;;;;;;;4.57;2.90;;;29.40;70.40;;;;;;6215132;28;20140;-86
2021/09/12 11:21:18;;;;;;;4.33;3.13;;;29.40;69.40;;;;;;6215511;28;20474;-85
2021/09/12 11:24:24;;;;;;;3.58;2.92;;;29.40;69.90;;;;;;6222174;28;20040;-87
2021/09/12 11:27:25;;;;;;;3.30;3.00;;;29.50;69.60;;;;;;6219411;28;20029;-83
2021/09/12 11:30:25;;;;;;;4.23;3.40;;;29.50;70.20;;;;;;6251383;28;20017;-87
2021/09/12 11:33:47;;;;;;;3.13;2.80;;;29.60;71.00;;;;;;6217371;28;20381;-84
2021/09/12 11:36:57;;;;;;;5.38;3.20;;;29.50;70.70;;;;;;6250830;28;20057;-89
2021/09/12 11:39:57;;;;;;;5.47;3.10;;;29.50;70.20;;;;;;6251028;28;20443;-85
2021/09/12 11:43:11;;;;;;;5.47;3.23;;;29.40;71.60;;;;;;6233995;28;20037;-91
2021/09/12 11:46:14;;;;;;;3.13;2.83;;;;;;;;;;6250642;28;20029;-88
2021/09/12 11:49:16;;;;;;;3.67;3.30;;;;;;;;;;6251553;28;20102;-89
2021/09/12 11:52:16;;;;;;;;;;;29.40;70.80;;;;;;6235340;28;20477;-90
2021/09/12 11:55:24;;;;;;;3.30;3.00;;;28.90;86.40;;;;;;6233993;28;19960;-87
2021/09/12 11:58:25;;;;;;;3.53;3.22;;;29.00;72.90;;;;;;6215302;28;20035;-87
2021/09/12 12:01:25;;;;;;;3.73;3.33;;;28.90;73.80;;;;;;6230194;28;20033;-81
2021/09/12 12:04:30;;;;;;;3.27;2.97;;;28.90;73.00;;;;;;6246469;28;20048;-82
2021/09/12 12:07:35;;;;;;;3.53;3.22;;;28.60;74.40;;;;;;6229831;28;20029;-84
2021/09/12 12:10:37;;;;;;;3.88;3.47;;;28.60;75.40;;;;;;6230884;28;20033;-82
2021/09/12 12:13:37;;;;;;;5.60;4.30;;;28.80;74.50;;;;;;6214163;28;20028;-81
2021/09/12 12:16:42;;;;;;;5.47;4.90;;;29.40;75.90;;;;;;6230225;28;20045;-81
2021/09/12 12:19:42;;;;;;;4.65;3.95;;;28.70;73.60;;;;;;6229040;28;20275;-83
2021/09/12 12:22:44;;;;;;;5.40;4.83;;;28.70;74.70;;;;;;6247362;28;20112;-85
2021/09/12 12:25:45;;;;;;;9.02;6.57;;;28.60;75.00;;;;;;6246089;28;20036;-86
2021/09/12 12:28:58;;;;;;;7.40;4.05;;;27.90;95.60;;;;;;6214947;28;20395;-82
2021/09/12 12:32:00;;;;;;;6.22;4.25;;;28.50;75.70;;;;;;6233590;28;20034;-87
2021/09/12 12:35:16;;;;;;;5.65;3.50;;;27.90;75.90;;;;;;6216945;28;20049;-82
2021/09/12 12:38:26;;;;;;;4.70;3.97;;;27.90;75.70;;;;;;6217703;28;20506;-80
2021/09/12 12:41:26;;;;;;;3.47;3.17;;;27.70;76.50;;;;;;6267405;28;20060;-82
2021/09/12 12:44:27;;;;;;;15.47;4.53;;;27.70;96.20;;;;;;6267656;28;20035;-82
2021/09/12 12:47:28;;;;;;;6.53;3.57;;;28.20;86.50;;;;;;6232717;28;20577;-84
2021/09/12 12:50:29;;;;;;;;;;;27.90;87.70;;;;;;6233911;28;20163;-80
2021/09/12 12:53:34;;;;;;;3.42;3.13;;;27.50;86.70;;;;;;6249731;28;19909;-82
2021/09/12 12:56:35;;;;;;;4.10;3.70;;;27.80;90.30;;;;;;6267942;28;20367;-82
2021/09/12 12:59:36;;;;;;;4.73;3.50;;;27.70;77.00;;;;;;6233638;28;20029;-86
2021/09/12 13:02:36;;;;;;;4.53;3.65;;;27.70;78.70;;;;;;6233674;28;20162;-82
2021/09/12 13:05:37;;;;;;;5.30;3.37;;;25.50;75.30;;;;;;6249632;28;20086;-84
2021/09/12 13:08:38;;;;;;;6.10;3.60;;;27.20;78.80;;;;;;6233284;28;20064;-86
2021/09/12 13:11:39;;;;;;;3.63;3.30;;;27.30;79.10;;;;;;6216465;28;20501;-84
2021/09/12 13:14:40;;;;;;;4.13;3.10;;;27.30;76.40;;;;;;6233264;28;20037;-82
2021/09/12 13:17:40;;;;;;;4.23;3.60;;;27.10;78.90;;;;;;6232950;28;20041;-82
2021/09/12 13:20:41;;;;;;;3.63;3.30;;;27.10;78.20;;;;;;6231494;28;20029;-83
2021/09/12 13:23:42;;;;;;;3.73;3.30;;;27.20;78.30;;;;;;6216354;28;21026;-83
2021/09/12 13:26:42;;;;;;;6.23;3.37;;;27.20;77.50;;;;;;6249723;28;20025;-87
2021/09/12 13:29:43;;;;;;;4.47;3.30;;;27.30;79.20;;;;;;6217176;28;20025;-86
2021/09/12 13:32:43;;;;;;;3.73;3.43;;;27.30;80.60;;;;;;6216576;28;20190;-84
2021/09/12 13:35:46;;;;;;;4.63;3.10;;;27.30;78.00;;;;;;6214913;28;20053;-84
2021/09/12 13:38:46;;;;;;;3.85;3.20;;;27.60;77.80;;;;;;6219263;28;20115;-86
2021/09/12 13:41:47;;;;;;;3.80;3.50;;;27.30;80.30;;;;;;6221221;28;20033;-84
2021/09/12 13:44:48;;;;;;;3.83;3.30;;;27.50;80.80;;;;;;6220874;28;20130;-87
2021/09/12 13:47:49;;;;;;;3.47;3.17;;;27.50;78.60;;;;;;6221158;28;20036;-85
2021/09/12 13:50:49;;;;;;;4.25;3.78;;;27.40;79.00;;;;;;6220948;28;20462;-85
2021/09/12 13:53:50;;;;;;;3.90;3.20;;;27.20;78.20;;;;;;6220961;28;20039;-84
2021/09/12 13:56:51;;;;;;;4.07;3.60;;;27.00;79.50;;;;;;6220831;28;20347;-84
2021/09/12 13:59:51;;;;;;;4.73;3.43;;;26.80;79.30;;;;;;6237308;28;20033;-84
2021/09/12 14:02:52;;;;;;;3.47;3.10;;;;;;;;;;6220809;28;20352;-84
2021/09/12 14:05:53;;;;;;;3.20;2.90;;;26.40;78.40;;;;;;6237149;28;20037;-87
2021/09/12 14:08:53;;;;;;;3.40;3.10;;;26.20;80.50;;;;;;6220830;28;20029;-84
2021/09/12 14:11:54;;;;;;;3.57;3.27;;;26.20;81.80;;;;;;6220646;28;20121;-85
2021/09/12 14:14:54;;;;;;;3.93;3.10;;;26.20;83.00;;;;;;6219993;28;20036;-87
2021/09/12 14:17:55;;;;;;;3.47;3.10;;;26.20;82.10;;;;;;6253225;28;20040;-84
2021/09/12 14:20:56;;;;;;;4.23;3.43;;;26.10;82.10;;;;;;6236312;28;20025;-84
2021/09/12 14:23:57;;;;;;;3.43;3.13;;;26.20;82.10;;;;;;6237168;28;20037;-85
2021/09/12 14:26:58;;;;;;;3.88;2.70;;;26.40;83.00;;;;;;6220345;28;20036;-85
2021/09/12 14:29:58;;;;;;;4.10;3.50;;;26.60;81.10;;;;;;6220191;28;20056;-84
2021/09/12 14:32:59;;;;;;;4.50;3.23;;;26.70;80.50;;;;;;6236307;28;20029;-85
2021/09/12 14:35:59;;;;;;;3.60;3.00;;;26.90;81.10;;;;;;6219426;28;20090;-85
2021/09/12 14:39:00;;;;;;;3.53;3.10;;;26.90;79.60;;;;;;6219871;28;20033;-85
2021/09/12 14:42:02;;;;;;;3.00;2.70;;;26.90;79.50;;;;;;6219963;28;20021;-85
2021/09/12 14:45:03;;;;;;;3.33;3.03;;;26.80;79.50;;;;;;6236000;28;20025;-85
2021/09/12 14:48:04;;;;;;;;;;;26.80;79.50;;;;;;6236151;28;20064;-84
2021/09/12 14:51:05;;;;;;;3.30;2.95;;;26.60;78.60;;;;;;6251540;28;19909;-84
2021/09/12 14:54:05;;;;;;;4.47;3.10;;;26.60;80.10;;;;;;6236083;28;20017;-84
2021/09/12 14:57:06;;;;;;;3.97;3.00;;;26.70;79.00;;;;;;6219031;28;20040;-84
2021/09/12 15:00:10;;;;;;;5.40;3.50;;;26.20;77.40;;;;;;6219551;28;20371;-84
2021/09/12 15:03:11;;;;;;;4.70;2.95;;;25.90;79.60;;;;;;6219844;28;20037;-85
2021/09/12 15:06:12;;;;;;;5.17;3.10;;;25.70;81.70;;;;;;6219167;28;20033;-85
2021/09/12 15:09:12;;;;;;;3.23;2.93;;;25.80;83.50;;;;;;6219334;28;20068;-83
2021/09/12 15:12:13;;;;;;;3.40;3.10;;;25.80;83.80;;;;;;6235327;28;20371;-84
2021/09/12 15:15:14;;;;;;;4.10;3.13;;;25.80;83.40;;;;;;6234852;28;20040;-84
2021/09/12 15:18:14;;;;;;;4.18;2.88;;;25.80;83.00;;;;;;6235624;28;20048;-84
2021/09/12 15:21:15;;;;;;;3.30;3.00;;;25.80;83.60;;;;;;6235279;28;20031;-84
2021/09/12 15:24:16;;;;;;;3.47;3.17;;;25.80;82.10;;;;;;6219019;28;20025;-82
2021/09/12 15:27:17;;;;;;;4.33;3.10;;;25.70;84.30;;;;;;6235300;28;20154;-86
2021/09/12 15:30:17;;;;;;;3.58;3.28;;;25.50;85.80;;;;;;6234849;28;20037;-84
2021/09/12 15:33:18;;;;;;;2.87;2.60;;;;;;;;;;6235166;28;20131;-85
2021/09/12 15:36:19;;;;;;;2.97;2.70;;;25.50;95.00;;;;;;6250836;28;20549;-84
2021/09/12 15:39:23;;;;;;;4.17;3.30;;;25.50;94.60;;;;;;6235550;28;20025;-84
2021/09/12 15:42:24;;;;;;;4.28;3.10;;;25.50;94.60;;;;;;6234652;28;20477;-83
2021/09/12 15:45:24;;;;;;;3.30;3.00;;;25.70;97.80;;;;;;6218429;28;20029;-83
2021/09/12 15:48:25;;;;;;;5.23;3.03;;;25.70;99.90;;;;;;6234770;28;20083;-84
2021/09/12 15:51:28;;;;;;;4.07;3.40;;;25.20;99.90;;;;;;6251422;28;20078;-84
2021/09/12 15:54:33;;;;;;;4.80;3.33;;;;;;;;;;6218304;28;20413;-86
2021/09/12 15:57:34;;;;;;;3.70;3.40;;;;;;;;;;6234801;28;20037;-83
2021/09/12 16:00:34;;;;;;;6.37;3.30;;;25.30;94.00;;;;;;6234181;28;20099;-85
2021/09/12 16:03:35;;;;;;;10.40;3.10;;;25.10;95.00;;;;;;6233984;28;20355;-85
2021/09/12 16:06:35;;;;;;;4.37;3.47;;;25.20;95.20;;;;;;6234656;28;20032;-85
2021/09/12 16:09:36;;;;;;;3.37;3.07;;;25.20;99.90;;;;;;6250702;28;20462;-84
2021/09/12 16:12:37;;;;;;;3.53;2.90;;;;;;;;;;6233983;28;20029;-84
2021/09/12 16:15:38;;;;;;;4.97;3.20;;;25.00;96.50;;;;;;6234143;28;20370;-84
2021/09/12 16:18:38;;;;;;;3.27;2.97;;;24.80;96.30;;;;;;6217740;28;20025;-84
2021/09/12 16:21:39;;;;;;;4.27;3.50;;;24.90;90.20;;;;;;6217722;28;20132;-84
2021/09/12 16:24:40;;;;;;;5.77;3.20;;;;;;;;;;6233986;28;20017;-83
2021/09/12 16:27:41;;;;;;;3.47;3.07;;;;;;;;;;6250474;28;20033;-84
2021/09/12 16:30:41;;;;;;;5.07;3.17;;;24.40;83.90;;;;;;6233558;28;20462;-86